Time;durP1;ratioP1;P1;durP2;ratioP2;P2;SDS_P1;SDS_P2;PMS_P1;PMS_P2;Temp;Humidity;BMP_temperature;BMP_pressure;BME280_temperature;BME280_humidity;BME280_pressure;Samples;Min_cycle;Max_cycle;Signal;HPM_P1;HPM_P2
2021/07/06 00:01:50;;;;;;;;;;;17.80;99.90;;;;;;5035380;28;19913;-76
2021/07/06 00:04:15;;;;;;;;;;;17.80;99.90;;;;;;5035873;28;20342;-77
2021/07/06 00:06:41;;;;;;;;;;;17.80;99.90;;;;;;5035221;28;19916;-76
2021/07/06 00:09:06;;;;;;;;;;;17.80;99.90;;;;;;5035274;28;19909;-76
2021/07/06 00:11:32;;;;;;;;;;;17.90;99.90;;;;;;5032964;28;19909;-76
2021/07/06 00:13:58;;;;;;;;;;;17.90;99.90;;;;;;5033638;28;19909;-75
2021/07/06 00:16:23;;;;;;;;;;;17.90;99.90;;;;;;5034838;28;20000;-77
2021/07/06 00:18:49;;;;;;;;;;;18.00;99.90;;;;;;5033314;28;20358;-76
2021/07/06 00:21:14;;;;;;;;;;;17.90;99.90;;;;;;5036509;28;19908;-75
2021/07/06 00:23:40;;;;;;;;;;;18.00;99.90;;;;;;5036553;28;20367;-76
2021/07/06 00:26:06;;;;;;;;;;;17.90;99.90;;;;;;5033070;28;19970;-76
2021/07/06 00:28:32;;;;;;;;;;;17.80;99.90;;;;;;5033566;28;19909;-75
2021/07/06 00:30:57;;;;;;;;;;;17.90;99.90;;;;;;5033557;28;19975;-75
2021/07/06 00:36:08;;;;;;;;;;;17.90;99.90;;;;;;5035030;28;19923;-76
2021/07/06 00:38:33;;;;;;;;;;;18.00;99.90;;;;;;5033831;28;19952;-76
2021/07/06 00:41:00;;;;;;;;;;;18.00;99.90;;;;;;5032146;28;19967;-77
2021/07/06 00:43:25;;;;;;;;;;;17.90;99.90;;;;;;5033384;28;19931;-76
2021/07/06 00:45:55;;;;;;;;;;;17.90;99.90;;;;;;5032665;28;19909;-77
2021/07/06 00:48:20;;;;;;;;;;;17.90;99.90;;;;;;5032024;28;19917;-78
2021/07/06 00:50:46;;;;;;;;;;;17.90;99.90;;;;;;5036822;28;19917;-80
2021/07/06 00:53:11;;;;;;;;;;;17.90;99.90;;;;;;5032002;28;19908;-79
2021/07/06 00:55:37;;;;;;;;;;;18.00;99.90;;;;;;5033369;28;19916;-77
2021/07/06 00:58:02;;;;;;;;;;;18.00;99.90;;;;;;5032379;28;20273;-77
2021/07/06 01:00:28;;;;;;;;;;;18.10;99.90;;;;;;5029957;28;20377;-77
2021/07/06 01:02:53;;;;;;;;;;;18.10;99.90;;;;;;5032751;28;19956;-77
2021/07/06 01:05:20;;;;;;;;;;;18.20;99.90;;;;;;5033004;28;19909;-78
2021/07/06 01:07:46;;;;;;;;;;;18.20;99.90;;;;;;5031143;28;19920;-77
2021/07/06 01:10:13;;;;;;;;;;;18.20;99.90;;;;;;5032814;28;19913;-77
2021/07/06 01:12:38;;;;;;;;;;;18.20;99.90;;;;;;5038460;28;19955;-77
2021/07/06 01:15:06;;;;;;;;;;;18.20;99.90;;;;;;5032677;28;20003;-76
2021/07/06 01:17:32;;;;;;;;;;;18.20;99.90;;;;;;5034492;28;20401;-77
2021/07/06 01:19:59;;;;;;;;;;;18.30;99.90;;;;;;5033361;28;19913;-76
2021/07/06 01:22:32;;;;;;;;;;;18.30;99.90;;;;;;5032782;28;20362;-77
2021/07/06 01:24:58;;;;;;;;;;;18.30;99.90;;;;;;5032169;28;20002;-76
2021/07/06 01:27:24;;;;;;;;;;;18.30;99.90;;;;;;5033155;28;19909;-77
2021/07/06 01:29:49;;;;;;;;;;;18.40;99.90;;;;;;5033202;28;19916;-77
2021/07/06 01:32:15;;;;;;;;;;;18.40;99.90;;;;;;5032313;28;20003;-76
2021/07/06 01:34:40;;;;;;;;;;;18.40;99.90;;;;;;5036176;28;19997;-76
2021/07/06 01:37:06;;;;;;;;;;;18.40;99.90;;;;;;5031834;28;19925;-77
2021/07/06 01:39:31;;;;;;;;;;;18.40;99.90;;;;;;5033165;28;21283;-76
2021/07/06 01:41:57;;;;;;;;;;;18.40;99.90;;;;;;5032505;28;19917;-76
2021/07/06 01:44:24;;;;;;;;;;;18.40;99.90;;;;;;5032297;28;19908;-76
2021/07/06 01:46:50;;;;;;;;;;;18.40;99.90;;;;;;5034769;28;19909;-76
2021/07/06 01:49:16;;;;;;;;;;;18.40;99.90;;;;;;5032380;28;19931;-77
2021/07/06 01:51:42;;;;;;;;;;;18.40;99.90;;;;;;5033330;28;19917;-76
2021/07/06 01:54:07;;;;;;;;;;;18.40;99.90;;;;;;5033263;28;19952;-77
2021/07/06 01:56:59;;;;;;;;;;;18.40;99.90;;;;;;5030145;28;19913;-78
2021/07/06 01:59:25;;;;;;;;;;;18.40;99.90;;;;;;5032483;28;20051;-76
2021/07/06 02:01:50;;;;;;;;;;;18.40;99.90;;;;;;5035142;28;20003;-76
2021/07/06 02:04:16;;;;;;;;;;;18.40;99.90;;;;;;5033605;28;19909;-77
2021/07/06 02:06:42;;;;;;;;;;;18.40;99.90;;;;;;5031543;28;19917;-77
2021/07/06 02:09:08;;;;;;;;;;;18.40;99.90;;;;;;5030954;28;20345;-76
2021/07/06 02:11:33;;;;;;;;;;;18.40;99.90;;;;;;5030204;28;20023;-77
2021/07/06 02:14:01;;;;;;;;;;;18.40;99.90;;;;;;5032116;28;19977;-77
2021/07/06 02:16:26;;;;;;;;;;;18.40;99.90;;;;;;5032953;28;19963;-76
2021/07/06 02:18:52;;;;;;;;;;;18.40;99.90;;;;;;5033227;28;19959;-77
2021/07/06 02:21:18;;;;;;;;;;;18.40;99.90;;;;;;5026893;28;19909;-77
2021/07/06 02:23:46;;;;;;;;;;;18.40;99.90;;;;;;5031259;28;19928;-77
2021/07/06 02:26:11;;;;;;;;;;;18.40;99.90;;;;;;5026606;28;19927;-77
2021/07/06 02:28:37;;;;;;;;;;;18.40;99.90;;;;;;5027945;28;19909;-77
2021/07/06 02:31:04;;;;;;;;;;;18.40;99.90;;;;;;5027687;28;19909;-77
2021/07/06 02:33:33;;;;;;;;;;;18.50;99.90;;;;;;5027674;28;19908;-77
2021/07/06 02:36:00;;;;;;;;;;;18.50;99.90;;;;;;5049139;28;19996;-76
2021/07/06 02:38:25;;;;;;;;;;;18.40;99.90;;;;;;5023640;28;19996;-77
2021/07/06 02:40:51;;;;;;;;;;;18.40;99.90;;;;;;5037837;28;20004;-77
2021/07/06 02:43:16;;;;;;;;;;;18.50;99.90;;;;;;5033798;28;20281;-76
2021/07/06 02:45:42;;;;;;;;;;;18.50;99.90;;;;;;5034575;28;19955;-77
2021/07/06 02:48:08;;;;;;;;;;;18.40;99.90;;;;;;5036467;28;19971;-77
2021/07/06 02:50:36;;;;;;;;;;;18.40;99.90;;;;;;5034961;28;19913;-76
2021/07/06 02:53:02;;;;;;;;;;;18.40;99.90;;;;;;5036187;28;19909;-76
2021/07/06 02:55:27;;;;;;;;;;;18.40;99.90;;;;;;5035422;28;20420;-76
2021/07/06 02:57:54;;;;;;;;;;;18.30;99.90;;;;;;5035145;28;19968;-76
2021/07/06 03:00:22;;;;;;;;;;;18.30;99.90;;;;;;5035478;28;19959;-76
2021/07/06 03:02:49;;;;;;;;;;;18.30;99.90;;;;;;5046879;28;19916;-76
2021/07/06 03:05:15;;;;;;;;;;;18.30;99.90;;;;;;5036277;28;19944;-77
2021/07/06 03:07:41;;;;;;;;;;;18.40;99.90;;;;;;5036948;28;20008;-76
2021/07/06 03:10:08;;;;;;;;;;;18.40;99.90;;;;;;5042403;28;19946;-76
2021/07/06 03:12:33;;;;;;;;;;;18.40;99.90;;;;;;5041114;28;19908;-76
2021/07/06 03:14:59;;;;;;;;;;;18.30;99.90;;;;;;5039053;28;19936;-76
2021/07/06 03:17:25;;;;;;;;;;;18.30;99.90;;;;;;5040898;28;19916;-77
2021/07/06 03:19:51;;;;;;;;;;;18.30;99.90;;;;;;5048188;28;19920;-77
2021/07/06 03:22:18;;;;;;;;;;;18.30;99.90;;;;;;5038510;28;20309;-76
2021/07/06 03:24:43;;;;;;;;;;;18.30;99.90;;;;;;5043461;28;19954;-77
2021/07/06 03:27:08;;;;;;;;;;;18.30;99.90;;;;;;5039104;28;19909;-75
2021/07/06 03:29:34;;;;;;;;;;;18.30;99.90;;;;;;5036455;28;20016;-77
2021/07/06 03:31:59;;;;;;;;;;;18.20;99.90;;;;;;5034917;28;20353;-76
2021/07/06 03:34:25;;;;;;;;;;;18.20;99.90;;;;;;5034930;28;19925;-76
2021/07/06 03:36:51;;;;;;;;;;;18.30;99.90;;;;;;5036708;28;19944;-76
2021/07/06 03:39:16;;;;;;;;;;;18.30;99.90;;;;;;5046482;28;20289;-77
2021/07/06 03:41:42;;;;;;;;;;;18.30;99.90;;;;;;5035148;28;20424;-77
2021/07/06 03:44:08;;;;;;;;;;;18.20;99.90;;;;;;5039481;28;20324;-76
2021/07/06 03:46:33;;;;;;;;;;;18.30;99.90;;;;;;5034488;28;20404;-76
2021/07/06 03:49:02;;;;;;;;;;;18.20;99.90;;;;;;5034541;28;19908;-77
2021/07/06 03:51:28;;;;;;;;;;;18.30;99.90;;;;;;5035467;28;20374;-77
2021/07/06 03:53:53;;;;;;;;;;;18.30;99.90;;;;;;5040878;28;20003;-77
2021/07/06 03:56:19;;;;;;;;;;;18.30;99.90;;;;;;5057558;28;19916;-76
2021/07/06 03:58:44;;;;;;;;;;;18.20;99.90;;;;;;5033677;28;19941;-77
2021/07/06 04:01:10;;;;;;;;;;;18.30;99.90;;;;;;5034712;28;20043;-76
2021/07/06 04:03:35;;;;;;;;;;;18.30;99.90;;;;;;5043219;28;20274;-76
2021/07/06 04:06:01;;;;;;;;;;;18.30;99.90;;;;;;5048638;28;19916;-76
2021/07/06 04:08:26;;;;;;;;;;;18.30;99.90;;;;;;5039526;28;19909;-76
2021/07/06 04:10:52;;;;;;;;;;;18.40;99.90;;;;;;5039598;28;19954;-76
2021/07/06 04:13:17;;;;;;;;;;;18.40;99.90;;;;;;5041328;28;19948;-77
2021/07/06 04:15:43;;;;;;;;;;;18.50;99.90;;;;;;5039979;28;19915;-76
2021/07/06 04:18:08;;;;;;;;;;;18.50;99.90;;;;;;5036143;28;19920;-76
2021/07/06 04:20:34;;;;;;;;;;;18.60;99.90;;;;;;5038058;28;19916;-76
2021/07/06 04:22:59;;;;;;;;;;;18.60;99.90;;;;;;5035517;28;19916;-76
2021/07/06 04:25:25;;;;;;;;;;;18.70;99.90;;;;;;5048391;28;19916;-77
2021/07/06 04:27:51;;;;;;;;;;;18.60;99.90;;;;;;5044053;28;20277;-76
2021/07/06 04:30:18;;;;;;;;;;;18.50;99.90;;;;;;5034584;28;19916;-76
2021/07/06 04:32:43;;;;;;;;;;;18.40;99.90;;;;;;5036417;28;20003;-75
2021/07/06 04:35:09;;;;;;;;;;;18.40;99.90;;;;;;5038384;28;19999;-76
2021/07/06 04:37:35;;;;;;;;;;;18.30;99.90;;;;;;5035121;28;19909;-76
2021/07/06 04:40:00;;;;;;;;;;;18.30;99.90;;;;;;5036681;28;19923;-77
2021/07/06 04:42:26;;;;;;;;;;;18.30;99.90;;;;;;5037350;28;20285;-76
2021/07/06 04:44:51;;;;;;;;;;;18.30;99.90;;;;;;5032584;28;19893;-77
2021/07/06 04:47:17;;;;;;;;;;;18.30;99.90;;;;;;5038278;28;19955;-76
2021/07/06 04:49:42;;;;;;;;;;;18.30;99.90;;;;;;5037671;28;20007;-76
2021/07/06 04:52:08;;;;;;;;;;;18.40;99.90;;;;;;5043541;28;19921;-76
2021/07/06 04:54:33;;;;;;;;;;;18.40;99.90;;;;;;5041886;28;19911;-76
2021/07/06 04:56:59;;;;;;;;;;;18.40;99.90;;;;;;5038035;28;19913;-76
2021/07/06 04:59:25;;;;;;;;;;;18.40;99.90;;;;;;5052859;28;19921;-76
2021/07/06 05:01:50;;;;;;;;;;;18.50;99.90;;;;;;5053974;28;19908;-76
2021/07/06 05:04:17;;;;;;;;;;;18.50;99.90;;;;;;5053876;28;19897;-76
2021/07/06 05:06:42;;;;;;;;;;;18.60;99.90;;;;;;5058953;28;19920;-76
2021/07/06 05:09:08;;;;;;;;;;;18.70;99.90;;;;;;5054577;28;19913;-76
2021/07/06 05:11:34;;;;;;;;;;;18.70;99.90;;;;;;5063456;28;19954;-76
2021/07/06 05:14:00;;;;;;;;;;;18.70;99.90;;;;;;5056050;28;19908;-76
2021/07/06 05:16:25;;;;;;;;;;;18.70;99.90;;;;;;5055944;28;19914;-77
2021/07/06 05:18:51;;;;;;;;;;;18.80;99.90;;;;;;5057189;28;19901;-76
2021/07/06 05:21:17;;;;;;;;;;;18.90;99.90;;;;;;5056708;28;19939;-77
2021/07/06 05:23:42;;;;;;;;;;;18.90;99.90;;;;;;5062473;28;19904;-77
2021/07/06 05:26:08;;;;;;;;;;;19.00;99.90;;;;;;5067946;28;19908;-76
2021/07/06 05:28:33;;;;;;;;;;;19.00;99.90;;;;;;5059883;28;19897;-75
2021/07/06 05:30:59;;;;;;;;;;;19.10;99.90;;;;;;5063575;28;20620;-76
2021/07/06 05:33:25;;;;;;;;;;;19.10;99.90;;;;;;5070263;28;19913;-77
2021/07/06 05:35:50;;;;;;;;;;;19.20;99.90;;;;;;5063462;28;19995;-77
2021/07/06 05:38:16;;;;;;;;;;;19.20;99.90;;;;;;5063053;28;19919;-77
2021/07/06 05:40:42;;;;;;;;;;;19.20;99.90;;;;;;5067118;28;19923;-76
2021/07/06 05:43:09;;;;;;;;;;;19.20;99.90;;;;;;5061639;28;19909;-77
2021/07/06 05:45:35;;;;;;;;;;;19.30;99.90;;;;;;5060597;28;19892;-76
2021/07/06 05:48:01;;;;;;;;;;;19.30;99.90;;;;;;5063562;28;19904;-77
2021/07/06 05:50:27;;;;;;;;;;;19.40;99.90;;;;;;5059183;28;19920;-76
2021/07/06 05:52:52;;;;;;;;;;;19.40;99.90;;;;;;5058696;28;19956;-77
2021/07/06 05:55:18;;;;;;;;;;;19.40;99.90;;;;;;5059876;28;19920;-76
2021/07/06 05:57:43;;;;;;;;;;;19.40;99.90;;;;;;5050575;28;19913;-76
2021/07/06 06:00:10;;;;;;;;;;;19.40;99.90;;;;;;5043386;28;19921;-76
2021/07/06 06:02:36;;;;;;;;;;;19.40;99.90;;;;;;5038000;28;19917;-75
2021/07/06 06:05:02;;;;;;;;;;;19.50;99.90;;;;;;5036705;28;19905;-76
2021/07/06 06:07:27;;;;;;;;;;;19.40;99.90;;;;;;5037629;28;19908;-77
2021/07/06 06:09:53;;;;;;;;;;;19.50;99.90;;;;;;5033041;28;19909;-76
2021/07/06 06:12:18;;;;;;;;;;;19.60;99.90;;;;;;5034326;28;19909;-75
2021/07/06 06:14:44;;;;;;;;;;;19.60;99.90;;;;;;5036505;28;19916;-74
2021/07/06 06:17:09;;;;;;;;;;;19.70;99.90;;;;;;5042924;28;19997;-76
2021/07/06 06:19:35;;;;;;;;;;;19.70;99.90;;;;;;5040396;28;20246;-76
2021/07/06 06:22:00;;;;;;;;;;;19.70;99.90;;;;;;5050807;28;20349;-75
2021/07/06 06:24:26;;;;;;;;;;;19.70;99.90;;;;;;5038586;28;19905;-76
2021/07/06 06:26:52;;;;;;;;;;;19.80;99.90;;;;;;5039280;28;19915;-75
2021/07/06 06:29:17;;;;;;;;;;;19.70;99.90;;;;;;5038690;28;19905;-75
2021/07/06 06:31:44;;;;;;;;;;;19.70;99.90;;;;;;5044712;28;19908;-76
2021/07/06 06:34:10;;;;;;;;;;;19.80;99.90;;;;;;5040461;28;20430;-75
2021/07/06 06:36:35;;;;;;;;;;;19.80;99.90;;;;;;5037908;28;19909;-75
2021/07/06 06:39:01;;;;;;;;;;;19.80;99.90;;;;;;5038245;28;20405;-75
2021/07/06 06:41:27;;;;;;;;;;;19.90;99.90;;;;;;5036743;28;19913;-76
2021/07/06 06:43:53;;;;;;;;;;;20.00;99.90;;;;;;5038049;28;19909;-76
2021/07/06 06:46:20;;;;;;;;;;;20.00;99.90;;;;;;5038020;28;20269;-76
2021/07/06 06:48:45;;;;;;;;;;;20.00;99.90;;;;;;5038496;28;20293;-76
2021/07/06 06:51:11;;;;;;;;;;;20.00;99.90;;;;;;5037155;28;19917;-76
2021/07/06 06:53:37;;;;;;;;;;;20.00;99.90;;;;;;5036016;28;20004;-76
2021/07/06 06:56:03;;;;;;;;;;;20.00;99.90;;;;;;5037549;28;19945;-75
2021/07/06 06:58:29;;;;;;;;;;;20.10;99.90;;;;;;5037283;28;19959;-76
2021/07/06 07:00:54;;;;;;;;;;;20.10;99.90;;;;;;5038410;28;20004;-75
2021/07/06 07:03:20;;;;;;;;;;;20.20;99.90;;;;;;5041252;28;19913;-75
2021/07/06 07:05:45;;;;;;;;;;;20.20;99.90;;;;;;5037575;28;20376;-75
2021/07/06 07:08:11;;;;;;;;;;;20.30;99.90;;;;;;5038382;28;20317;-75
2021/07/06 07:10:39;;;;;;;;;;;20.30;99.90;;;;;;5037054;28;19916;-76
2021/07/06 07:13:04;;;;;;;;;;;20.20;99.90;;;;;;5037352;28;19909;-75
2021/07/06 07:15:30;;;;;;;;;;;20.20;99.90;;;;;;5054439;28;19915;-76
2021/07/06 07:17:55;;;;;;;;;;;20.20;99.90;;;;;;5036492;28;19959;-76
2021/07/06 07:20:21;;;;;;;;;;;20.20;99.90;;;;;;5037068;28;19913;-75
2021/07/06 07:22:46;;;;;;;;;;;20.20;99.90;;;;;;5035899;28;19909;-75
2021/07/06 07:25:12;;;;;;;;;;;20.30;99.90;;;;;;5036655;28;19955;-76
2021/07/06 07:27:38;;;;;;;;;;;20.20;99.90;;;;;;5035190;28;20285;-75
2021/07/06 07:30:04;;;;;;;;;;;20.20;99.90;;;;;;5036584;28;19909;-75
2021/07/06 07:32:31;;;;;;;;;;;20.20;99.90;;;;;;5036153;28;19936;-75
2021/07/06 07:34:56;;;;;;;;;;;20.20;99.90;;;;;;5034110;28;19949;-75
2021/07/06 07:37:22;;;;;;;;;;;20.20;99.90;;;;;;5034686;28;19916;-75
2021/07/06 07:39:47;;;;;;;;;;;20.20;99.90;;;;;;5029240;28;20369;-76
2021/07/06 07:42:14;;;;;;;;;;;20.30;99.90;;;;;;5035165;28;20007;-76
2021/07/06 07:44:40;;;;;;;;;;;20.30;99.90;;;;;;5035198;28;20478;-75
2021/07/06 07:47:05;;;;;;;;;;;20.30;99.90;;;;;;5049484;28;19968;-76
2021/07/06 07:49:31;;;;;;;;;;;20.40;99.90;;;;;;5049940;28;19948;-75
2021/07/06 07:51:56;;;;;;;;;;;20.50;99.90;;;;;;5033089;28;20011;-75
2021/07/06 07:54:22;;;;;;;;;;;20.90;99.90;;;;;;5031704;28;19909;-75
2021/07/06 07:56:47;;;;;;;;;;;21.10;99.90;;;;;;5034079;28;19955;-76
2021/07/06 07:59:13;;;;;;;;;;;21.40;99.90;;;;;;5035051;28;19999;-75
2021/07/06 08:01:38;;;;;;;;;;;21.80;99.90;;;;;;5054215;28;19913;-75
2021/07/06 08:04:04;;;;;;;;;;;22.10;99.90;;;;;;5035799;28;19989;-76
2021/07/06 08:06:29;;;;;;;;;;;22.50;99.90;;;;;;5034796;28;19963;-75
2021/07/06 08:08:55;;;;;;;;;;;22.50;99.90;;;;;;5031968;28;19909;-75
2021/07/06 08:11:21;;;;;;;;;;;22.60;99.90;;;;;;5044202;28;20391;-75
2021/07/06 08:13:46;;;;;;;;;;;22.60;99.90;;;;;;5031981;28;19916;-75
2021/07/06 08:16:13;;;;;;;;;;;22.70;99.90;;;;;;5034420;28;19963;-75
2021/07/06 08:18:38;;;;;;;;;;;22.90;99.90;;;;;;5030999;28;19920;-75
2021/07/06 08:21:04;;;;;;;;;;;23.00;99.90;;;;;;5033273;28;20350;-75
2021/07/06 08:23:29;;;;;;;;;;;23.00;99.90;;;;;;5033441;28;19913;-76
2021/07/06 08:25:55;;;;;;;;;;;23.00;99.90;;;;;;5034408;28;19909;-75
2021/07/06 08:28:22;;;;;;;;;;;23.40;99.90;;;;;;5029478;28;19913;-75
2021/07/06 08:30:48;;;;;;;;;;;23.80;99.90;;;;;;5024608;28;19909;-75
2021/07/06 08:33:13;;;;;;;;;;;24.20;99.90;;;;;;5034093;28;20262;-76
2021/07/06 08:35:39;;;;;;;;;;;24.60;99.90;;;;;;5033220;28;19921;-75
2021/07/06 08:38:05;;;;;;;;;;;24.40;99.90;;;;;;5031145;28;20347;-76
2021/07/06 08:40:30;;;;;;;;;;;24.00;99.90;;;;;;5031339;28;19917;-76
2021/07/06 08:42:59;;;;;;;;;;;23.70;99.90;;;;;;5032571;28;19999;-75
2021/07/06 08:45:26;;;;;;;;;;;23.90;99.90;;;;;;5031597;28;19909;-76
2021/07/06 08:47:53;;;;;;;;;;;23.70;99.90;;;;;;5031352;28;19909;-76
2021/07/06 08:50:19;;;;;;;;;;;23.30;99.90;;;;;;5033933;28;19988;-76
2021/07/06 08:52:45;;;;;;;;;;;22.90;99.90;;;;;;5033986;28;20015;-75
2021/07/06 08:55:12;;;;;;;;;;;23.00;99.90;;;;;;5035482;28;19913;-76
2021/07/06 08:57:38;;;;;;;;;;;22.70;99.90;;;;;;5036021;28;19916;-76
2021/07/06 09:00:04;;;;;;;;;;;22.70;99.90;;;;;;5040963;28;19918;-80
2021/07/06 09:02:30;;;;;;;;;;;22.90;99.90;;;;;;5035926;28;19917;-76
2021/07/06 09:04:55;;;;;;;;;;;23.20;99.90;;;;;;5035544;28;19954;-76
2021/07/06 09:07:21;;;;;;;;;;;23.20;99.90;;;;;;5045539;28;20311;-77
2021/07/06 09:09:49;;;;;;;;;;;23.40;99.90;;;;;;5035501;28;19909;-75
2021/07/06 09:12:16;;;;;;;;;;;23.70;99.90;;;;;;5032937;28;19909;-76
2021/07/06 09:14:48;;;;;;;;;;;23.90;99.90;;;;;;5046457;28;19912;-76
2021/07/06 09:17:21;;;;;;;;;;;23.90;99.90;;;;;;5037417;28;19999;-77
2021/07/06 09:19:49;;;;;;;;;;;23.90;99.90;;;;;;5028081;28;19913;-74
2021/07/06 09:22:18;;;;;;;;;;;24.50;99.90;;;;;;5035233;28;19924;-77
2021/07/06 09:24:56;;;;;;;;;;;24.80;99.90;;;;;;5027091;28;19916;-75
2021/07/06 09:27:23;;;;;;;;;;;24.60;99.90;;;;;;5026421;28;19909;-76
2021/07/06 09:30:01;;;;;;;;;;;24.00;99.90;;;;;;5024766;28;19918;-76
2021/07/06 09:32:26;;;;;;;;;;;23.50;99.90;;;;;;5030194;28;19988;-75
2021/07/06 09:34:52;;;;;;;;;;;23.20;99.90;;;;;;5025705;28;20008;-75
2021/07/06 09:37:17;;;;;;;;;;;23.00;99.90;;;;;;5024968;28;20004;-76
2021/07/06 09:39:43;;;;;;;;;;;23.00;99.90;;;;;;5026320;28;20015;-76
2021/07/06 09:42:11;;;;;;;;;;;23.10;99.90;;;;;;5025044;28;19952;-76
2021/07/06 09:44:39;;;;;;;;;;;23.00;99.90;;;;;;5027026;28;19908;-76
2021/07/06 09:47:05;;;;;;;;;;;23.00;99.90;;;;;;5022745;28;20297;-75
2021/07/06 09:49:32;;;;;;;;;;;23.00;99.90;;;;;;5024788;28;19917;-75
2021/07/06 09:51:58;;;;;;;;;;;22.90;99.90;;;;;;5022825;28;20320;-75
2021/07/06 09:54:28;;;;;;;;;;;23.10;99.90;;;;;;5023623;28;19909;-76
2021/07/06 09:57:03;;;;;;;;;;;22.80;99.90;;;;;;5024967;28;19917;-75
2021/07/06 09:59:28;;;;;;;;;;;22.40;99.90;;;;;;5024288;28;20000;-76
2021/07/06 10:01:54;;;;;;;;;;;22.40;99.90;;;;;;5024491;28;20005;-77
2021/07/06 10:04:26;;;;;;;;;;;22.70;99.90;;;;;;5023273;28;19920;-77
2021/07/06 10:06:55;;;;;;;;;;;22.60;99.90;;;;;;5039220;28;19944;-76
2021/07/06 10:09:21;;;;;;;;;;;22.30;99.90;;;;;;5028019;28;19917;-76
2021/07/06 10:11:46;;;;;;;;;;;22.10;99.90;;;;;;5026426;28;20282;-77
2021/07/06 10:14:12;;;;;;;;;;;22.10;99.90;;;;;;5027654;28;19967;-77
2021/07/06 10:16:39;;;;;;;;;;;22.00;99.90;;;;;;5027030;28;19912;-77
2021/07/06 10:19:06;;;;;;;;;;;21.90;99.90;;;;;;5027750;28;19964;-76
2021/07/06 10:21:32;;;;;;;;;;;21.80;99.90;;;;;;5032629;28;19909;-79
2021/07/06 10:23:59;;;;;;;;;;;21.80;99.90;;;;;;5028498;28;20377;-77
2021/07/06 10:26:28;;;;;;;;;;;21.70;99.90;;;;;;5029445;28;20282;-77
2021/07/06 10:28:54;;;;;;;;;;;21.60;99.90;;;;;;5024294;28;19916;-77
2021/07/06 10:31:20;;;;;;;;;;;21.80;99.90;;;;;;5024677;28;19913;-78
2021/07/06 10:33:47;;;;;;;;;;;22.00;99.90;;;;;;5026033;28;19917;-78
2021/07/06 10:36:13;;;;;;;;;;;22.20;99.90;;;;;;5029804;28;19916;-74
2021/07/06 10:38:54;;;;;;;;;;;22.20;99.90;;;;;;5025423;28;19921;-75
2021/07/06 10:41:34;;;;;;;;;;;22.30;99.90;;;;;;5025661;28;20405;-74
2021/07/06 10:44:02;;;;;;;;;;;22.20;99.90;;;;;;5020639;28;20537;-75
2021/07/06 10:46:41;;;;;;;;;;;21.90;99.90;;;;;;5025528;28;19913;-76
2021/07/06 10:49:11;;;;;;;;;;;21.80;99.90;;;;;;5036396;28;19919;-76
2021/07/06 10:51:37;;;;;;;;;;;21.70;99.90;;;;;;5025257;28;20297;-76
2021/07/06 10:54:03;;;;;;;;;;;22.00;99.90;;;;;;5025926;28;19909;-77
2021/07/06 10:56:33;;;;;;;;;;;22.40;99.90;;;;;;5025731;28;19916;-77
2021/07/06 10:59:00;;;;;;;;;;;22.90;99.90;;;;;;5042478;28;19916;-75
2021/07/06 11:01:45;;;;;;;;;;;22.90;99.90;;;;;;5026149;28;20369;-77
2021/07/06 11:04:11;;;;;;;;;;;22.70;99.90;;;;;;5029777;28;20358;-76
2021/07/06 11:06:46;;;;;;;;;;;22.60;99.90;;;;;;5029207;28;19915;-75
2021/07/06 11:09:17;;;;;;;;;;;22.60;99.90;;;;;;5029625;28;19909;-75
2021/07/06 11:11:43;;;;;;;;;;;22.60;99.90;;;;;;5030525;28;19913;-76
2021/07/06 11:14:18;;;;;;;;;;;22.50;99.90;;;;;;5029189;28;19924;-78
2021/07/06 11:16:54;;;;;;;;;;;22.20;99.90;;;;;;5033102;28;19924;-76
2021/07/06 11:19:36;;;;;;;;;;;22.00;99.90;;;;;;5036536;28;19917;-76
2021/07/06 11:22:07;;;;;;;;;;;21.70;99.90;;;;;;5049606;28;19909;-78
2021/07/06 11:24:43;;;;;;;;;;;21.30;99.90;;;;;;5039903;28;19909;-78
2021/07/06 11:27:09;;;;;;;;;;;21.20;99.90;;;;;;5046041;28;19978;-77
2021/07/06 11:29:37;;;;;;;;;;;21.10;99.90;;;;;;5043712;28;20358;-77
2021/07/06 11:32:10;;;;;;;;;;;21.10;99.90;;;;;;5037334;28;19909;-77
2021/07/06 11:34:37;;;;;;;;;;;21.20;99.90;;;;;;5038069;28;19916;-77
2021/07/06 11:37:06;;;;;;;;;;;21.40;99.90;;;;;;5047466;28;19915;-77
2021/07/06 11:39:35;;;;;;;;;;;21.40;99.90;;;;;;5057853;28;19921;-78
2021/07/06 11:42:01;;;;;;;;;;;21.50;99.90;;;;;;5063205;28;19965;-79
2021/07/06 11:44:27;;;;;;;;;;;21.50;99.90;;;;;;5062292;28;19924;-78
2021/07/06 11:47:05;;;;;;;;;;;21.50;99.90;;;;;;5070917;28;19897;-79
2021/07/06 11:49:31;;;;;;;;;;;21.60;99.90;;;;;;5083716;28;19917;-81
2021/07/06 11:51:59;;;;;;;;;;;21.80;99.90;;;;;;5069173;28;20246;-81
2021/07/06 11:54:24;;;;;;;;;;;21.90;99.90;;;;;;5060059;28;19905;-78
2021/07/06 11:56:50;;;;;;;;;;;22.00;99.90;;;;;;5060027;28;19909;-79
2021/07/06 11:59:15;;;;;;;;;;;21.90;99.90;;;;;;5065927;28;19905;-79
2021/07/06 12:01:41;;;;;;;;;;;21.80;99.90;;;;;;5057621;28;19948;-79
2021/07/06 12:04:07;;;;;;;;;;;21.60;99.90;;;;;;5052588;28;19897;-79
2021/07/06 12:06:33;;;;;;;;;;;21.40;99.90;;;;;;5053107;28;19921;-78
2021/07/06 12:09:04;;;;;;;;;;;21.30;99.90;;;;;;5052518;28;19917;-80
2021/07/06 12:11:30;;;;;;;;;;;21.10;99.90;;;;;;5054143;28;19921;-81
2021/07/06 12:14:00;;;;;;;;;;;21.10;99.90;;;;;;5056123;28;19907;-80
2021/07/06 12:16:27;;;;;;;;;;;21.00;99.90;;;;;;5067103;28;19951;-79
2021/07/06 12:18:52;;;;;;;;;;;20.90;99.90;;;;;;5054234;28;19917;-80
2021/07/06 12:21:44;;;;;;;;;;;20.80;99.90;;;;;;5059968;28;19916;-79
2021/07/06 12:24:14;;;;;;;;;;;20.70;99.90;;;;;;5054026;28;19940;-79
2021/07/06 12:26:41;;;;;;;;;;;20.60;99.90;;;;;;5039585;28;20400;-79
2021/07/06 12:29:06;;;;;;;;;;;20.60;99.90;;;;;;5054082;28;19904;-79
2021/07/06 12:31:33;;;;;;;;;;;20.50;99.90;;;;;;5064350;28;19945;-79
2021/07/06 12:34:03;;;;;;;;;;;20.40;99.90;;;;;;5050555;28;19913;-76
2021/07/06 12:36:36;;;;;;;;;;;20.40;99.90;;;;;;5045467;28;19913;-79
2021/07/06 12:39:08;;;;;;;;;;;20.30;99.90;;;;;;5044216;28;19913;-79
2021/07/06 12:41:39;;;;;;;;;;;20.30;99.90;;;;;;5039338;28;19936;-81
2021/07/06 12:44:04;;;;;;;;;;;20.30;99.90;;;;;;5039389;28;20297;-80
2021/07/06 12:46:30;;;;;;;;;;;20.30;99.90;;;;;;5044743;28;19912;-79
2021/07/06 12:48:59;;;;;;;;;;;20.50;99.90;;;;;;5044650;28;19916;-79
2021/07/06 12:51:24;;;;;;;;;;;20.70;99.90;;;;;;5046279;28;19957;-81
2021/07/06 12:54:00;;;;;;;;;;;20.80;99.90;;;;;;5047277;28;20361;-78
2021/07/06 12:56:27;;;;;;;;;;;20.90;99.90;;;;;;5038689;28;19940;-80
2021/07/06 12:58:53;;;;;;;;;;;20.80;99.90;;;;;;5037971;28;20284;-80
2021/07/06 13:01:34;;;;;;;;;;;20.80;99.90;;;;;;5035886;28;19908;-80
2021/07/06 13:04:00;;;;;;;;;;;20.80;99.90;;;;;;5040186;28;19962;-79
2021/07/06 13:06:25;;;;;;;;;;;20.90;99.90;;;;;;5047272;28;20384;-79
2021/07/06 13:08:51;;;;;;;;;;;20.90;99.90;;;;;;5051389;28;19944;-82
2021/07/06 13:11:25;;;;;;;;;;;20.90;99.90;;;;;;5033966;28;20457;-83
2021/07/06 13:13:50;;;;;;;;;;;20.90;99.90;;;;;;5032123;28;19917;-80
2021/07/06 13:16:23;;;;;;;;;;;20.80;99.90;;;;;;5025972;28;19917;-80
2021/07/06 13:18:49;;;;;;;;;;;20.80;99.90;;;;;;5036458;28;19920;-80
2021/07/06 13:21:18;;;;;;;;;;;20.70;99.90;;;;;;5037753;28;20282;-81
2021/07/06 13:23:44;;;;;;;;;;;20.60;99.90;;;;;;5040519;28;19909;-81
2021/07/06 13:26:10;;;;;;;;;;;20.50;99.90;;;;;;5036165;28;19913;-81
2021/07/06 13:28:36;;;;;;;;;;;20.30;99.90;;;;;;5036922;28;20327;-78
2021/07/06 13:31:01;;;;;;;;;;;20.20;99.90;;;;;;5048720;28;19930;-79
2021/07/06 13:33:27;;;;;;;;;;;20.20;99.90;;;;;;5040313;28;19915;-81
2021/07/06 13:35:54;;;;;;;;;;;20.30;99.90;;;;;;5047581;28;19916;-78
2021/07/06 13:38:20;;;;;;;;;;;20.50;99.90;;;;;;5036752;28;19932;-79
2021/07/06 13:40:46;;;;;;;;;;;20.60;99.90;;;;;;5038988;28;19944;-79
2021/07/06 13:43:15;;;;;;;;;;;20.70;99.90;;;;;;5042845;28;19909;-84
2021/07/06 13:45:41;;;;;;;;;;;20.70;99.90;;;;;;5035806;28;19923;-79
2021/07/06 13:48:07;;;;;;;;;;;20.70;99.90;;;;;;5040447;28;19917;-79
2021/07/06 13:50:32;;;;;;;;;;;20.80;99.90;;;;;;5034403;28;20367;-81
2021/07/06 13:52:58;;;;;;;;;;;20.80;99.90;;;;;;5035810;28;19920;-82
2021/07/06 13:55:27;;;;;;;;;;;20.80;99.90;;;;;;5037190;28;19909;-82
2021/07/06 13:57:53;;;;;;;;;;;20.80;99.90;;;;;;5037049;28;19913;-81
2021/07/06 14:00:19;;;;;;;;;;;20.80;99.90;;;;;;5035276;28;20366;-81
2021/07/06 14:02:45;;;;;;;;;;;20.60;99.90;;;;;;5032651;28;19920;-82
2021/07/06 14:05:11;;;;;;;;;;;20.60;99.90;;;;;;5036676;28;19917;-80
2021/07/06 14:07:36;;;;;;;;;;;20.50;99.90;;;;;;5031132;28;19975;-82
2021/07/06 14:10:03;;;;;;;;;;;20.40;99.90;;;;;;5034223;28;19909;-83
2021/07/06 14:12:28;;;;;;;;;;;20.30;99.90;;;;;;5044472;28;19909;-84
2021/07/06 14:14:55;;;;;;;;;;;20.40;99.90;;;;;;5033476;28;19963;-81
2021/07/06 14:17:21;;;;;;;;;;;20.40;99.90;;;;;;5035328;28;19932;-82